Time;durP1;ratioP1;P1;durP2;ratioP2;P2;SDS_P1;SDS_P2;PMS_P1;PMS_P2;Temp;Humidity;BMP_temperature;BMP_pressure;BME280_temperature;BME280_humidity;BME280_pressure;Samples;Min_cycle;Max_cycle;Signal;HPM_P1;HPM_P2
2023/01/14 00:00:54;;;;;;;7.20;2.80;;;;;;;6.80;100.00;100000.13;5029657;28;20506;-66
2023/01/14 00:03:20;;;;;;;11.17;2.20;;;;;;;6.92;100.00;100003.63;5025837;28;20476;-66
2023/01/14 00:05:55;;;;;;;7.70;1.87;;;;;;;6.96;100.00;100005.03;5019710;28;20509;-66
2023/01/14 00:08:22;;;;;;;8.90;2.10;;;;;;;7.11;100.00;100006.47;5037466;28;20454;-65
2023/01/14 00:10:48;;;;;;;9.13;1.83;;;;;;;7.01;100.00;100005.53;5035574;28;20489;-66
2023/01/14 00:13:16;;;;;;;9.17;2.80;;;;;;;7.00;100.00;100008.34;5041820;28;20490;-66
2023/01/14 00:15:51;;;;;;;7.37;2.10;;;;;;;6.75;100.00;99995.19;5029435;28;20490;-65
2023/01/14 00:18:18;;;;;;;5.10;2.10;;;;;;;6.88;100.00;100007.50;5022721;28;21163;-66
2023/01/14 00:20:45;;;;;;;4.37;1.97;;;;;;;6.76;100.00;100002.19;5022597;28;20470;-65
2023/01/14 00:23:11;;;;;;;6.63;2.00;;;;;;;6.91;100.00;100009.88;5032943;28;20478;-66
2023/01/14 00:25:38;;;;;;;3.73;1.70;;;;;;;7.00;100.00;100017.13;5025782;28;20479;-66
2023/01/14 00:28:05;;;;;;;5.30;1.80;;;;;;;6.79;100.00;100004.59;5025386;28;20458;-66
2023/01/14 00:30:33;;;;;;;6.67;1.63;;;;;;;6.69;100.00;100024.88;5041786;28;20477;-67
2023/01/14 00:33:00;;;;;;;6.17;1.70;;;;;;;6.71;100.00;100011.50;5029325;28;20823;-66
2023/01/14 00:35:27;;;;;;;5.37;1.80;;;;;;;6.76;100.00;100009.31;5031395;28;20462;-67
2023/01/14 00:37:53;;;;;;;1.93;1.20;;;;;;;6.72;100.00;100013.19;5004889;28;20447;-67
2023/01/14 00:40:20;;;;;;;3.93;1.33;;;;;;;6.57;100.00;100026.69;5023363;28;20482;-67
2023/01/14 00:42:47;;;;;;;5.00;1.37;;;;;;;6.59;100.00;100023.91;5023684;28;20899;-66
2023/01/14 00:45:13;;;;;;;5.03;2.60;;;;;;;6.56;100.00;100019.72;5025944;28;20487;-66
2023/01/14 00:47:41;;;;;;;5.57;1.83;;;;;;;6.52;100.00;100026.22;5023231;28;20629;-66
2023/01/14 00:50:10;;;;;;;6.07;3.10;;;;;;;6.54;100.00;100024.28;5023514;28;20668;-66
2023/01/14 00:52:36;;;;;;;4.00;1.87;;;;;;;6.58;100.00;100020.44;5023319;28;20467;-66
2023/01/14 00:55:03;;;;;;;6.40;2.00;;;;;;;6.50;100.00;100025.50;5022185;28;20486;-66
2023/01/14 00:57:30;;;;;;;6.50;2.20;;;;;;;6.52;100.00;100022.72;5030606;28;20487;-66
2023/01/14 00:59:57;;;;;;;7.53;1.93;;;;;;;6.51;100.00;100028.97;5035459;28;20517;-65
2023/01/14 01:02:23;;;;;;;8.23;1.80;;;;;;;6.37;100.00;100012.34;5037737;28;20489;-65
2023/01/14 01:04:51;;;;;;;6.80;1.67;;;;;;;6.39;100.00;100014.88;5031942;28;20490;-65
2023/01/14 01:07:18;;;;;;;3.77;1.67;;;;;;;6.29;100.00;100020.03;5037638;28;20486;-65
2023/01/14 01:09:47;;;;;;;4.97;1.87;;;;;;;6.33;100.00;100016.19;5041303;28;20482;-65
2023/01/14 01:12:14;;;;;;;6.90;1.90;;;;;;;6.15;100.00;100029.06;5035181;28;20942;-65
2023/01/14 01:14:41;;;;;;;8.83;2.93;;;;;;;6.21;100.00;100027.75;5021622;28;20486;-65
2023/01/14 01:17:07;;;;;;;4.23;1.53;;;;;;;6.15;100.00;100017.63;5005792;28;20502;-65
2023/01/14 01:19:34;;;;;;;7.90;2.50;;;;;;;6.17;100.00;100024.47;5021491;28;20475;-65
2023/01/14 01:22:02;;;;;;;6.37;2.13;;;;;;;6.11;100.00;100021.44;5020990;28;20498;-65
2023/01/14 01:24:29;;;;;;;8.43;3.27;;;;;;;6.16;100.00;100032.56;5015761;28;20456;-65
2023/01/14 01:26:57;;;;;;;10.80;3.40;;;;;;;6.11;100.00;100045.34;5021075;28;20540;-66
2023/01/14 01:29:24;;;;;;;7.50;2.67;;;;;;;6.17;100.00;100039.56;5021064;28;20460;-65
2023/01/14 01:31:50;;;;;;;7.37;2.50;;;;;;;6.15;100.00;100049.47;5018244;28;20579;-66
2023/01/14 01:34:17;;;;;;;7.47;2.53;;;;;;;6.24;100.00;100058.53;5021220;28;20479;-65
2023/01/14 01:36:43;;;;;;;9.73;2.70;;;;;;;6.32;100.00;100056.97;5020151;28;20486;-65
2023/01/14 01:39:11;;;;;;;9.80;2.83;;;;;;;6.46;100.00;100066.53;5014792;28;20443;-66
2023/01/14 01:41:38;;;;;;;7.73;2.70;;;;;;;6.35;100.00;100067.38;5002084;28;20571;-65
2023/01/14 01:44:07;;;;;;;8.90;2.97;;;;;;;6.41;100.00;100068.72;5016683;28;20463;-66
2023/01/14 01:46:35;;;;;;;8.73;3.27;;;;;;;6.46;100.00;100074.50;4988196;28;20555;-65
2023/01/14 01:49:06;;;;;;;7.73;2.43;;;;;;;6.43;100.00;100074.75;5010963;28;20482;-65
2023/01/14 01:51:35;;;;;;;19.80;3.67;;;;;;;6.44;100.00;100084.41;5014418;28;20543;-65
2023/01/14 01:54:03;;;;;;;15.17;3.20;;;;;;;6.64;100.00;100090.81;4996491;28;20487;-65
2023/01/14 01:56:34;;;;;;;13.27;4.60;;;;;;;6.64;100.00;100074.88;5001647;28;20496;-65
2023/01/14 01:59:02;;;;;;;15.73;5.00;;;;;;;6.83;100.00;100084.06;5003787;28;20460;-65
2023/01/14 02:01:29;;;;;;;11.33;3.63;;;;;;;6.88;100.00;100092.53;5012542;28;20550;-65
2023/01/14 02:03:55;;;;;;;8.03;4.87;;;;;;;6.94;100.00;100087.59;5004110;28;20506;-66
2023/01/14 02:06:23;;;;;;;9.13;3.30;;;;;;;6.93;100.00;100090.38;5010011;28;20525;-65
2023/01/14 02:08:51;;;;;;;8.87;3.90;;;;;;;7.07;100.00;100098.06;5020365;28;20482;-67
2023/01/14 02:11:45;;;;;;;16.03;4.33;;;;;;;7.09;100.00;100092.66;5019461;28;20575;-65
2023/01/14 02:14:22;;;;;;;15.70;4.20;;;;;;;7.01;100.00;100089.75;5003994;28;20486;-65
2023/01/14 02:17:02;;;;;;;10.50;4.33;;;;;;;7.09;100.00;100090.81;5036231;28;20501;-67
2023/01/14 02:19:47;;;;;;;16.80;5.20;;;;;;;7.08;100.00;100089.16;5037382;28;20450;-67
2023/01/14 02:22:32;;;;;;;14.53;4.83;;;;;;;7.10;100.00;100097.84;5021063;28;20509;-67
2023/01/14 02:25:21;;;;;;;17.50;6.23;;;;;;;7.24;100.00;100104.72;5037207;28;20542;-66
2023/01/14 02:27:53;;;;;;;18.03;4.70;;;;;;;7.20;100.00;100092.63;5025082;28;20517;-66
2023/01/14 02:30:36;;;;;;;12.10;5.10;;;;;;;7.29;100.00;100096.34;5028920;28;20456;-67
2023/01/14 02:33:14;;;;;;;12.67;4.17;;;;;;;7.19;100.00;100085.63;5024660;28;20964;-67
2023/01/14 02:35:43;;;;;;;10.13;3.70;;;;;;;7.25;100.00;100095.75;5023456;28;20478;-67
2023/01/14 02:38:23;;;;;;;23.27;5.20;;;;;;;7.24;100.00;100096.75;5034941;28;20538;-67
2023/01/14 02:40:52;;;;;;;14.87;4.80;;;;;;;7.20;100.00;100089.97;5020907;28;21096;-67
2023/01/14 02:46:12;;;;;;;23.70;7.73;;;;;;;7.24;100.00;100074.59;5027371;28;20490;-66
2023/01/14 02:48:39;;;;;;;18.93;6.10;;;;;;;7.24;100.00;100072.81;5039509;28;20454;-66
2023/01/14 02:51:06;;;;;;;17.70;5.60;;;;;;;7.28;100.00;100084.03;5039648;28;20565;-66
2023/01/14 02:53:33;;;;;;;15.83;5.87;;;;;;;7.15;100.00;100068.22;5026101;28;20577;-66
2023/01/14 02:56:00;;;;;;;17.00;5.17;;;;;;;7.22;100.00;100072.09;5022206;28;20505;-66
2023/01/14 02:58:43;;;;;;;16.73;6.53;;;;;;;7.30;100.00;100077.63;5038895;28;21118;-66
2023/01/14 03:01:28;;;;;;;20.83;6.03;;;;;;;7.20;100.00;100073.16;5041941;28;20478;-66
2023/01/14 03:04:22;;;;;;;12.83;5.30;;;;;;;7.31;100.00;100067.84;5026592;28;20439;-66
2023/01/14 03:06:59;;;;;;;16.97;5.07;;;;;;;7.37;100.00;100066.50;5035942;28;20504;-66
2023/01/14 03:09:30;;;;;;;16.73;5.10;;;;;;;7.27;100.00;100067.22;5039773;28;20472;-66
2023/01/14 03:12:04;;;;;;;14.67;4.20;;;;;;;7.20;100.00;100062.53;5024895;28;20511;-66
2023/01/14 03:14:34;;;;;;;16.50;4.80;;;;;;;7.15;100.00;100054.91;5025900;28;20496;-65
2023/01/14 03:17:07;;;;;;;16.60;5.63;;;;;;;7.09;100.00;100050.13;5043192;28;20520;-65
2023/01/14 03:19:38;;;;;;;31.10;5.50;;;;;;;7.20;100.00;100068.69;5043934;28;20482;-66
2023/01/14 03:22:06;;;;;;;20.10;6.10;;;;;;;7.12;100.00;100061.34;5036091;28;20477;-67
2023/01/14 03:24:34;;;;;;;17.40;4.70;;;;;;;7.23;100.00;100064.94;5010183;28;20460;-66
2023/01/14 03:27:03;;;;;;;35.43;5.60;;;;;;;7.20;100.00;100055.41;5035730;28;20540;-65
2023/01/14 03:29:34;;;;;;;19.30;4.30;;;;;;;7.27;100.00;100058.41;5037402;28;20542;-66
2023/01/14 03:32:05;;;;;;;17.90;4.83;;;;;;;7.29;100.00;100060.00;5034335;28;20478;-65
2023/01/14 03:34:35;;;;;;;15.30;4.50;;;;;;;7.18;100.00;100056.50;5039577;28;20446;-66
2023/01/14 03:37:03;;;;;;;16.77;4.13;;;;;;;7.14;100.00;100056.75;5042561;28;20474;-65
2023/01/14 03:39:30;;;;;;;15.20;5.13;;;;;;;7.15;100.00;100057.56;5042551;28;20485;-66
2023/01/14 03:42:19;;;;;;;18.80;5.17;;;;;;;7.34;100.00;100048.97;5043580;28;20509;-66
2023/01/14 03:44:52;;;;;;;16.80;5.13;;;;;;;7.18;100.00;100053.84;5042870;28;20522;-66
2023/01/14 03:47:22;;;;;;;15.17;4.33;;;;;;;7.26;100.00;100054.91;5034508;28;20501;-66
2023/01/14 03:49:49;;;;;;;17.17;4.57;;;;;;;7.04;100.00;100053.13;5035335;28;20975;-66
2023/01/14 03:52:19;;;;;;;20.03;5.93;;;;;;;7.07;100.00;100055.53;5043477;28;20477;-65
2023/01/14 03:54:49;;;;;;;18.50;5.37;;;;;;;7.09;100.00;100056.25;5042887;28;20446;-66
2023/01/14 03:57:19;;;;;;;10.23;5.13;;;;;;;7.19;100.00;100052.84;5026545;28;20486;-66
2023/01/14 03:59:50;;;;;;;19.30;5.60;;;;;;;7.09;100.00;100037.66;5031790;28;20952;-66
2023/01/14 04:02:18;;;;;;;17.37;4.40;;;;;;;7.11;100.00;100050.81;5033119;28;20503;-66
2023/01/14 04:04:46;;;;;;;18.47;4.53;;;;;;;6.93;100.00;100046.00;5035514;28;20490;-66
2023/01/14 04:07:13;;;;;;;16.50;4.87;;;;;;;6.90;100.00;100053.38;5027212;28;20493;-67
2023/01/14 04:09:39;;;;;;;18.63;5.43;;;;;;;6.71;100.00;100025.59;5042614;28;20470;-67
2023/01/14 04:12:06;;;;;;;18.27;5.23;;;;;;;6.71;100.00;100038.88;5033739;28;20502;-67
2023/01/14 04:17:17;;;;;;;19.83;5.30;;;;;;;6.56;100.00;100034.78;5040824;28;20481;-67
2023/01/14 04:19:45;;;;;;;25.73;5.77;;;;;;;6.58;100.00;100035.53;5039098;28;20562;-67
2023/01/14 04:22:12;;;;;;;29.00;6.40;;;;;;;6.56;100.00;100029.47;5042471;28;20501;-67
2023/01/14 04:24:38;;;;;;;19.63;6.40;;;;;;;6.53;100.00;100035.03;5042110;28;20484;-67
2023/01/14 04:27:05;;;;;;;17.53;5.60;;;;;;;6.46;100.00;100028.50;5035039;28;20863;-67
2023/01/14 04:29:32;;;;;;;16.23;5.57;;;;;;;6.54;100.00;100040.22;5034244;28;20465;-70
2023/01/14 04:31:58;;;;;;;20.00;5.63;;;;;;;6.63;100.00;100040.47;5024636;28;20550;-69
2023/01/14 04:34:25;;;;;;;18.67;5.73;;;;;;;6.62;100.00;100039.63;5036294;28;20455;-70
2023/01/14 04:36:53;;;;;;;20.10;5.13;;;;;;;6.64;100.00;100040.34;5022864;28;20467;-69
2023/01/14 04:39:20;;;;;;;20.80;4.73;;;;;;;6.53;100.00;100030.56;5021857;28;20511;-69
2023/01/14 04:44:31;;;;;;;26.53;6.40;;;;;;;6.54;100.00;100047.34;5023078;28;20486;-69
2023/01/14 04:46:58;;;;;;;15.57;5.40;;;;;;;6.72;100.00;100053.88;5033251;28;20496;-69
2023/01/14 04:49:24;;;;;;;23.60;5.60;;;;;;;6.83;100.00;100046.88;5038693;28;20475;-69
2023/01/14 04:51:52;;;;;;;21.43;6.43;;;;;;;6.91;100.00;100039.13;5041728;28;20501;-68
2023/01/14 04:54:19;;;;;;;25.83;5.43;;;;;;;6.87;100.00;100045.66;5029615;28;20538;-68
2023/01/14 04:56:45;;;;;;;21.30;4.90;;;;;;;6.88;100.00;100032.25;5024713;28;21073;-69
2023/01/14 04:59:12;;;;;;;13.50;5.10;;;;;;;6.84;100.00;100044.09;5026797;28;20454;-69
2023/01/14 05:01:39;;;;;;;20.13;5.80;;;;;;;6.86;100.00;100044.81;5034337;28;20506;-70
2023/01/14 05:04:05;;;;;;;19.50;5.80;;;;;;;6.85;100.00;100042.28;5024701;28;20473;-68
2023/01/14 05:06:32;;;;;;;14.30;5.07;;;;;;;6.83;100.00;100046.88;5030384;28;20516;-68
2023/01/14 05:09:00;;;;;;;20.07;5.43;;;;;;;6.76;100.00;100055.31;5035989;28;20486;-69
2023/01/14 05:11:26;;;;;;;25.87;6.50;;;;;;;6.78;100.00;100042.75;5035471;28;20470;-68
2023/01/14 05:13:53;;;;;;;22.63;5.40;;;;;;;6.77;100.00;100033.09;5036605;28;20498;-69
2023/01/14 05:16:20;;;;;;;24.23;5.37;;;;;;;6.68;100.00;100028.50;5034703;28;20486;-68
2023/01/14 05:18:46;;;;;;;22.00;5.77;;;;;;;6.69;100.00;100027.53;5028894;28;20496;-66
2023/01/14 05:21:13;;;;;;;16.93;4.63;;;;;;;6.53;100.00;100025.25;5033453;28;20544;-66
2023/01/14 05:23:40;;;;;;;26.50;6.73;;;;;;;6.58;100.00;100027.56;5022755;28;20454;-67
2023/01/14 05:26:08;;;;;;;19.83;5.20;;;;;;;6.44;100.00;100025.13;5019314;28;20513;-68
2023/01/14 05:28:36;;;;;;;22.23;5.90;;;;;;;6.35;100.00;100018.72;5034569;28;20529;-67
2023/01/14 05:31:02;;;;;;;22.67;5.37;;;;;;;6.42;100.00;100022.59;5021442;28;20487;-67
2023/01/14 05:33:29;;;;;;;18.80;4.47;;;;;;;6.37;100.00;100014.13;5021194;28;20495;-67
2023/01/14 05:35:56;;;;;;;26.53;5.00;;;;;;;6.29;100.00;100013.91;5020736;28;20483;-67
2023/01/14 05:38:23;;;;;;;20.77;4.90;;;;;;;6.24;100.00;100003.63;5021939;28;20543;-66
2023/01/14 05:40:50;;;;;;;16.30;5.20;;;;;;;6.28;100.00;99991.78;5020448;28;20482;-66
2023/01/14 05:46:05;;;;;;;14.53;4.60;;;;;;;6.18;100.00;99988.16;5020720;28;20490;-66
2023/01/14 05:48:32;;;;;;;20.17;6.00;;;;;;;6.25;100.00;99991.19;5021406;28;21053;-66
2023/01/14 05:51:00;;;;;;;21.07;4.50;;;;;;;6.27;100.00;99984.81;5020236;28;20501;-66
2023/01/14 05:53:28;;;;;;;21.73;4.67;;;;;;;6.24;100.00;99984.22;5021824;28;20483;-66
2023/01/14 05:55:55;;;;;;;18.07;4.90;;;;;;;6.26;100.00;99971.66;5020728;28;20490;-67
2023/01/14 05:58:24;;;;;;;16.63;3.93;;;;;;;6.37;100.00;99975.16;5020883;28;20451;-66
2023/01/14 06:06:22;;;;;;;28.23;5.00;;;;;;;6.28;100.00;99951.13;5020457;28;20494;-66
2023/01/14 06:08:49;;;;;;;17.40;4.60;;;;;;;6.37;100.00;99948.63;5021405;28;20491;-67
2023/01/14 06:11:17;;;;;;;25.30;6.43;;;;;;;6.34;100.00;99932.91;5019476;28;20483;-66
2023/01/14 06:13:45;;;;;;;26.50;5.03;;;;;;;6.20;100.00;99939.31;5021322;28;20494;-65
2023/01/14 06:16:12;;;;;;;25.37;8.13;;;;;;;6.17;100.00;99930.75;5020542;28;20521;-66
2023/01/14 06:18:42;;;;;;;35.43;7.80;;;;;;;6.10;100.00;99927.72;5021318;28;20490;-65
2023/01/14 06:21:09;;;;;;;22.00;6.60;;;;;;;6.08;100.00;99928.81;5027074;28;20502;-66
2023/01/14 06:23:36;;;;;;;23.10;4.90;;;;;;;6.14;100.00;99923.84;5020187;28;20875;-66
2023/01/14 06:26:02;;;;;;;20.63;4.70;;;;;;;6.15;100.00;99917.59;5021248;28;20487;-66
2023/01/14 06:28:29;;;;;;;17.10;4.00;;;;;;;6.14;100.00;99925.66;5020967;28;20478;-65
2023/01/14 06:30:57;;;;;;;13.27;5.17;;;;;;;6.15;100.00;99914.94;5025783;28;20486;-66
2023/01/14 06:33:24;;;;;;;17.03;3.70;;;;;;;6.08;100.00;99913.72;5022804;28;20537;-66
2023/01/14 06:35:51;;;;;;;14.17;4.13;;;;;;;6.08;100.00;99903.13;5022835;28;20475;-66
2023/01/14 06:38:17;;;;;;;18.70;4.27;;;;;;;6.06;100.00;99904.19;5021364;28;20896;-67
2023/01/14 06:40:44;;;;;;;25.03;4.93;;;;;;;6.11;100.00;99910.84;5019913;28;20497;-67
2023/01/14 06:43:11;;;;;;;15.33;4.07;;;;;;;6.10;100.00;99910.97;5021574;28;20430;-66
2023/01/14 06:45:37;;;;;;;17.43;3.80;;;;;;;6.10;100.00;99908.31;5020663;28;20542;-66
2023/01/14 06:48:06;;;;;;;27.87;5.17;;;;;;;6.05;100.00;99910.47;5021594;28;20430;-65
2023/01/14 06:50:32;;;;;;;17.50;5.50;;;;;;;5.96;100.00;99901.44;5019893;28;20475;-66
2023/01/14 06:53:02;;;;;;;25.07;7.97;;;;;;;6.14;100.00;99901.78;5021695;28;20479;-66
2023/01/14 06:55:29;;;;;;;22.03;4.20;;;;;;;6.11;100.00;99896.72;5020020;28;20495;-66
2023/01/14 06:57:56;;;;;;;16.83;4.80;;;;;;;6.16;100.00;99892.75;5023891;28;20488;-66
2023/01/14 07:00:23;;;;;;;20.10;4.40;;;;;;;5.97;100.00;99887.19;5040367;28;20927;-66
2023/01/14 07:02:49;;;;;;;22.97;5.73;;;;;;;6.10;100.00;99887.91;5039347;28;20442;-67
2023/01/14 07:05:17;;;;;;;17.87;4.33;;;;;;;6.01;100.00;99878.03;5034411;28;20455;-66
2023/01/14 07:07:48;;;;;;;13.43;3.93;;;;;;;6.03;100.00;99878.75;5021289;28;20439;-65
2023/01/14 07:10:15;;;;;;;19.10;5.20;;;;;;;6.08;100.00;99881.06;5020235;28;20462;-65
2023/01/14 07:12:44;;;;;;;20.57;4.60;;;;;;;6.11;100.00;99871.03;5019229;28;20519;-66
2023/01/14 07:15:11;;;;;;;20.50;4.30;;;;;;;6.12;100.00;99871.88;5019194;28;20486;-66
2023/01/14 07:17:38;;;;;;;14.70;3.63;;;;;;;6.02;100.00;99869.09;5020785;28;20491;-66
2023/01/14 07:20:05;;;;;;;17.10;3.67;;;;;;;6.07;100.00;99863.44;5019183;28;20479;-66
2023/01/14 07:22:33;;;;;;;20.50;5.70;;;;;;;6.02;100.00;99855.81;5019547;28;20474;-65
2023/01/14 07:25:01;;;;;;;16.43;4.17;;;;;;;6.08;100.00;99855.34;5019526;28;20482;-66
2023/01/14 07:27:28;;;;;;;14.20;4.00;;;;;;;6.04;100.00;99848.56;5017110;28;20498;-67
2023/01/14 07:29:54;;;;;;;22.43;4.70;;;;;;;6.05;100.00;99844.97;5016306;28;20496;-67
2023/01/14 07:32:21;;;;;;;12.90;3.63;;;;;;;6.04;100.00;99843.25;5019718;28;20482;-67
2023/01/14 07:34:47;;;;;;;18.23;4.93;;;;;;;6.08;100.00;99842.06;5019740;28;20510;-67
2023/01/14 07:37:14;;;;;;;16.83;4.73;;;;;;;6.01;100.00;99836.41;5019050;28;20491;-67
2023/01/14 07:39:42;;;;;;;16.23;4.77;;;;;;;5.99;100.00;99819.78;5019710;28;20443;-67
2023/01/14 07:42:09;;;;;;;14.17;3.30;;;;;;;6.09;100.00;99811.91;5016189;28;20558;-67
2023/01/14 07:44:35;;;;;;;9.30;3.30;;;;;;;6.11;100.00;99799.38;5018280;28;20431;-65
2023/01/14 07:47:02;;;;;;;19.63;4.27;;;;;;;6.19;100.00;99798.75;5021950;28;20490;-65
2023/01/14 07:49:29;;;;;;;16.27;3.93;;;;;;;6.22;100.00;99795.84;5022081;28;20473;-67
2023/01/14 07:51:55;;;;;;;22.47;4.50;;;;;;;6.20;100.00;99787.16;5021983;28;20487;-66
2023/01/14 07:54:22;;;;;;;17.20;3.60;;;;;;;6.31;100.00;99791.59;5022618;28;20805;-67
2023/01/14 07:56:50;;;;;;;12.70;3.63;;;;;;;6.29;100.00;99785.59;5023169;28;20478;-70
2023/01/14 07:59:17;;;;;;;12.37;3.60;;;;;;;6.33;100.00;99777.22;5035051;28;20486;-68
2023/01/14 08:01:43;;;;;;;17.27;3.77;;;;;;;6.41;100.00;99779.28;5038817;28;20503;-68
2023/01/14 08:04:10;;;;;;;13.87;4.47;;;;;;;6.38;100.00;99758.28;5023544;28;20455;-69
2023/01/14 08:06:36;;;;;;;12.73;3.10;;;;;;;6.53;100.00;99761.50;5021012;28;20482;-69
2023/01/14 08:09:03;;;;;;;12.10;4.07;;;;;;;6.56;100.00;99761.22;5036170;28;20459;-69
2023/01/14 08:11:30;;;;;;;12.60;3.13;;;;;;;6.43;99.35;99765.88;5032342;28;21099;-68
2023/01/14 08:13:58;;;;;;;14.83;2.90;;;;;;;6.48;99.45;99747.75;5037165;28;20486;-69
2023/01/14 08:16:25;;;;;;;18.23;3.60;;;;;;;6.54;98.66;99747.22;5022863;28;20485;-68
2023/01/14 08:18:51;;;;;;;9.40;2.50;;;;;;;6.51;98.55;99744.81;5027494;28;20494;-68
2023/01/14 08:21:18;;;;;;;14.00;3.53;;;;;;;6.53;98.61;99738.44;5025910;28;20521;-68
2023/01/14 08:23:45;;;;;;;8.63;2.53;;;;;;;6.60;98.49;99747.56;5026342;28;20909;-70
2023/01/14 08:26:13;;;;;;;13.50;3.53;;;;;;;6.57;97.82;99742.50;5027051;28;20512;-68
2023/01/14 08:28:40;;;;;;;21.43;3.77;;;;;;;6.65;97.50;99739.22;5023700;28;20463;-69
2023/01/14 08:31:11;;;;;;;11.57;3.23;;;;;;;6.56;97.97;99738.19;5023931;28;20514;-69
2023/01/14 08:33:37;;;;;;;18.40;3.30;;;;;;;6.61;97.57;99735.13;5023354;28;20514;-69
2023/01/14 08:36:06;;;;;;;11.27;3.40;;;;;;;6.75;97.09;99726.84;5022675;28;20467;-68
2023/01/14 08:38:33;;;;;;;13.20;3.50;;;;;;;6.66;96.75;99721.47;5022636;28;20458;-68
2023/01/14 08:40:59;;;;;;;10.77;3.10;;;;;;;6.71;96.52;99713.94;5021069;28;20520;-68
2023/01/14 08:43:26;;;;;;;12.87;3.00;;;;;;;6.68;96.20;99715.03;5022240;28;20478;-68
2023/01/14 08:45:52;;;;;;;15.93;3.33;;;;;;;6.75;96.75;99713.56;5020755;28;20498;-68
2023/01/14 08:48:20;;;;;;;16.87;3.40;;;;;;;6.82;96.02;99719.19;5022842;28;20482;-69
2023/01/14 08:50:47;;;;;;;11.00;3.60;;;;;;;6.77;95.94;99693.03;5020613;28;21216;-69
2023/01/14 08:53:14;;;;;;;10.17;2.97;;;;;;;6.91;95.37;99689.19;5018435;28;20515;-68
2023/01/14 08:55:40;;;;;;;11.77;2.80;;;;;;;6.89;95.07;99691.16;5020102;28;20546;-68
2023/01/14 08:58:07;;;;;;;11.13;2.57;;;;;;;6.92;95.75;99674.91;5023866;28;20455;-67
2023/01/14 09:00:34;;;;;;;12.50;2.63;;;;;;;6.88;95.63;99678.81;5022443;28;20461;-68
2023/01/14 09:03:01;;;;;;;11.43;2.60;;;;;;;7.00;94.92;99665.47;5030921;28;20469;-65
2023/01/14 09:05:32;;;;;;;8.17;2.80;;;;;;;6.86;95.33;99658.69;5014310;28;20494;-65
2023/01/14 09:18:53;;;;;;;9.00;2.50;;;;;;;6.63;100.00;99621.66;5025431;28;20469;-68
2023/01/14 09:21:22;;;;;;;8.00;2.73;;;;;;;6.43;100.00;99617.19;5020896;28;20510;-67
2023/01/14 09:23:49;;;;;;;10.73;3.03;;;;;;;6.46;100.00;99623.06;5023132;28;20469;-67
2023/01/14 09:26:16;;;;;;;13.13;4.00;;;;;;;6.38;100.00;99614.91;5038011;28;20553;-67
2023/01/14 09:28:42;;;;;;;8.77;2.57;;;;;;;6.40;100.00;99608.47;5031731;28;20521;-68
2023/01/14 09:31:09;;;;;;;12.70;2.50;;;;;;;6.49;100.00;99603.38;5025888;28;20537;-68
2023/01/14 09:33:36;;;;;;;7.60;2.13;;;;;;;6.44;100.00;99598.47;5026094;28;20991;-66
2023/01/14 09:36:03;;;;;;;16.00;4.17;;;;;;;6.36;100.00;99587.66;5022947;28;20499;-66
2023/01/14 09:38:31;;;;;;;13.43;3.90;;;;;;;6.25;100.00;99603.63;5021448;28;20470;-73
2023/01/14 09:40:58;;;;;;;13.13;3.27;;;;;;;6.24;100.00;99600.13;5026107;28;20512;-66
2023/01/14 09:43:31;;;;;;;14.07;3.00;;;;;;;6.13;100.00;99581.63;5040617;28;20480;-66
2023/01/14 09:46:00;;;;;;;8.17;2.67;;;;;;;6.17;100.00;99593.66;5026438;28;20473;-67
2023/01/14 09:48:29;;;;;;;8.83;2.73;;;;;;;6.22;100.00;99583.50;5020010;28;20485;-68
2023/01/14 09:51:02;;;;;;;6.20;2.20;;;;;;;6.21;100.00;99580.00;5021884;28;20471;-68
2023/01/14 09:53:51;;;;;;;10.07;3.77;;;;;;;6.20;100.00;99572.19;5018652;28;20447;-68
2023/01/14 09:56:21;;;;;;;8.43;2.73;;;;;;;6.26;100.00;99568.97;5022222;28;20482;-67
2023/01/14 09:58:53;;;;;;;11.80;2.73;;;;;;;6.20;100.00;99561.56;5020932;28;20490;-68
2023/01/14 10:01:25;;;;;;;7.03;2.73;;;;;;;6.18;100.00;99552.84;5020277;28;20485;-68
2023/01/14 10:03:56;;;;;;;6.33;2.47;;;;;;;6.24;100.00;99555.00;5020790;28;20901;-65
2023/01/14 10:06:23;;;;;;;9.83;3.43;;;;;;;6.28;100.00;99548.44;5023948;28;20474;-63
2023/01/14 10:08:56;;;;;;;9.40;2.57;;;;;;;6.19;100.00;99534.16;5025762;28;20459;-62
2023/01/14 10:11:24;;;;;;;8.40;2.63;;;;;;;6.27;100.00;99530.00;5021409;28;20478;-62
2023/01/14 10:14:00;;;;;;;11.30;3.27;;;;;;;6.30;100.00;99525.31;5021016;28;20487;-62
2023/01/14 10:16:28;;;;;;;18.47;3.23;;;;;;;6.22;100.00;99522.44;5020631;28;20528;-64
2023/01/14 10:18:58;;;;;;;17.40;3.90;;;;;;;6.37;100.00;99518.47;5019494;28;20459;-63
2023/01/14 10:21:29;;;;;;;10.10;2.60;;;;;;;6.30;100.00;99527.09;5019975;28;20510;-64
2023/01/14 10:23:57;;;;;;;7.60;3.03;;;;;;;6.32;100.00;99512.72;5023970;28;20807;-64
2023/01/14 10:26:31;;;;;;;11.93;3.77;;;;;;;6.35;100.00;99512.47;5012069;28;21020;-63
2023/01/14 10:29:00;;;;;;;9.07;4.03;;;;;;;6.31;100.00;99495.09;5022518;28;20447;-62
2023/01/14 10:31:29;;;;;;;16.03;3.07;;;;;;;6.36;100.00;99492.06;5020578;28;20486;-63
2023/01/14 10:33:56;;;;;;;10.83;2.63;;;;;;;6.38;100.00;99490.13;5020997;28;20905;-64
2023/01/14 10:36:23;;;;;;;8.40;2.30;;;;;;;6.35;100.00;99464.69;5020376;28;20479;-64
2023/01/14 10:38:51;;;;;;;7.13;2.33;;;;;;;6.34;100.00;99464.81;5020554;28;20486;-65
2023/01/14 10:41:48;;;;;;;11.50;3.23;;;;;;;6.34;100.00;99448.88;5023011;28;20842;-65
2023/01/14 10:44:06;;;;;;;13.77;5.00;;;;;;;6.42;100.00;99430.44;5026661;28;20450;-64
2023/01/14 10:46:33;;;;;;;8.30;3.07;;;;;;;6.37;100.00;99409.63;5020200;28;20498;-64
2023/01/14 10:49:03;;;;;;;12.20;3.30;;;;;;;6.38;100.00;99397.19;5018393;28;20490;-64
2023/01/14 10:51:35;;;;;;;7.30;2.43;;;;;;;6.37;100.00;99398.16;5015783;28;20537;-64
2023/01/14 10:54:13;;;;;;;12.13;2.33;;;;;;;6.39;100.00;99391.75;5018126;28;20458;-65
2023/01/14 10:56:43;;;;;;;8.37;2.67;;;;;;;6.54;100.00;99373.59;5018350;28;20485;-66
2023/01/14 10:59:39;;;;;;;8.67;2.60;;;;;;;6.50;100.00;99366.91;5025088;28;20451;-65
2023/01/14 11:02:06;;;;;;;7.40;3.23;;;;;;;6.54;100.00;99348.88;5019184;28;20472;-65
2023/01/14 11:04:35;;;;;;;9.43;2.27;;;;;;;6.57;100.00;99337.97;5029626;28;20482;-65
2023/01/14 11:07:09;;;;;;;8.50;2.43;;;;;;;6.57;100.00;99322.88;5021201;28;20510;-64
2023/01/14 11:09:36;;;;;;;15.17;2.90;;;;;;;6.51;100.00;99315.47;5023301;28;20971;-64
2023/01/14 11:12:05;;;;;;;12.70;2.53;;;;;;;6.69;100.00;99307.66;5014682;28;20480;-64
2023/01/14 11:14:37;;;;;;;13.97;4.80;;;;;;;6.57;100.00;99287.53;5019392;28;21025;-65
2023/01/14 11:17:21;;;;;;;7.47;2.80;;;;;;;6.63;100.00;99294.09;5019993;28;20706;-65
2023/01/14 11:19:48;;;;;;;7.67;2.37;;;;;;;6.69;100.00;99265.16;5028955;28;20525;-65
2023/01/14 11:22:14;;;;;;;5.27;1.83;;;;;;;6.78;100.00;99269.63;5038365;28;20506;-64
2023/01/14 11:24:44;;;;;;;7.23;2.30;;;;;;;6.71;100.00;99254.41;5032829;28;20479;-66
2023/01/14 11:27:17;;;;;;;5.77;2.50;;;;;;;6.82;100.00;99250.75;5033066;28;20509;-65
2023/01/14 11:29:45;;;;;;;7.60;2.40;;;;;;;6.78;100.00;99231.59;5024919;28;20447;-63
2023/01/14 11:32:13;;;;;;;9.53;4.43;;;;;;;6.73;100.00;99229.38;5023705;28;21090;-65
2023/01/14 11:34:42;;;;;;;9.40;2.67;;;;;;;6.84;100.00;99216.91;5027370;28;20471;-65
2023/01/14 11:37:16;;;;;;;12.77;2.73;;;;;;;6.92;100.00;99219.69;5025626;28;20482;-64
2023/01/14 11:39:47;;;;;;;8.90;2.47;;;;;;;6.88;100.00;99205.03;5043903;28;20461;-64
2023/01/14 11:42:34;;;;;;;12.43;2.10;;;;;;;6.90;100.00;99200.41;5029584;28;20486;-64
2023/01/14 11:45:03;;;;;;;6.83;2.50;;;;;;;6.84;100.00;99187.69;5024359;28;20439;-65
2023/01/14 11:47:30;;;;;;;7.03;2.07;;;;;;;6.94;100.00;99181.41;5026191;28;20514;-65
2023/01/14 11:50:12;;;;;;;11.63;2.47;;;;;;;6.97;100.00;99182.91;5023128;28;20439;-64
2023/01/14 11:52:39;;;;;;;5.77;2.20;;;;;;;7.06;100.00;99171.41;5022172;28;20455;-63
2023/01/14 11:55:13;;;;;;;4.10;1.70;;;;;;;7.05;100.00;99167.09;5022800;28;20511;-65
2023/01/14 11:57:42;;;;;;;9.10;2.30;;;;;;;7.10;100.00;99163.97;5022924;28;20465;-63
2023/01/14 12:00:11;;;;;;;5.63;2.30;;;;;;;7.05;100.00;99137.00;5022298;28;20462;-64